ADDS METAR Data

Data at: 0508 UTC 20 Apr 2018

METAR for:KAUG (Augusta/State Arpt, ME, US)
Text:KAUG 200453Z AUTO 31006KT 10SM OVC090 03/M02 A2974 RMK AO2 SLP075 T00281022 400830028
Temperature: 2.8°C ( 37°F)
Dewpoint: -2.2°C ( 28°F) [RH = 70%]
Pressure (altimeter):29.74 inches Hg (1007.2 mb) [Sea level pressure: 1007.5 mb]
Winds:from the NW (310 degrees) at 7 MPH (6 knots; 3.1 m/s)
Visibility:10 or more sm (16+ km)
Ceiling:9000 feet AGL
Clouds: overcast cloud deck at 9000 feet AGL
QC Flag:automated observation with no human augmentation